Annette Island Airport Annette US
ICAO: PANT
IATA:
Category: Medium
Scheduled Services:

Elevation: 119 ft
TransAlt. 18000 ft.

Airport Communications:
ASOS:135.75
CTAF:122.9
KETCHIKAN RDO:122.4

PANT Zoom In..

If you have problems with the map follow the link
https://www.worldairports.se/pages/airport.php?
ICAO=PANT

Runways:

(A) RW 02 length 5709 ft width 150 ft
---- / hdg 20

(B) RW 12 length 7493 ft width 150 ft
---- / hdg 124

(C) RW 20 length 5709 ft width 150 ft
---- / hdg 200

(D) RW 30 length 7493 ft width 150 ft
---- / hdg 304

Location; PANT
Day. 23 / Time. 17.53 Zulu
* Altimeter: 29.62
* Temperature: 11° c. 51.8°f.
* Wind from: 140° Speed 13 kn with Gusts up to 19 kn.
Dewpoint: 09° c.
Visibility: 10 Statute Miles.
Clouds: Broken 3300 ft.
Clouds: Overcast 4300 ft.
Conditions: Light Rain.

PANT 231753Z AUTO 14013G19KT 10SM -RA BKN033 OVC043 11/09 A2962 RMK PK WND 13027/1716 SLP030 P0005 60009 T01110094 10144 20106 53009 TSNO VIA AUTODIAL


Wind From 140°
Speed 13 kn.

 
 
jpsmedia.com for Web Design worldairports.se 2018   terms of use